createdAt,value
2023-03-16T00:01:12.881Z,77.67
2023-03-16T00:03:58.128Z,81.30
2023-03-16T00:06:42.957Z,77.09
2023-03-16T00:09:31.133Z,75.44
2023-03-16T00:12:19.448Z,82.01
2023-03-16T00:15:05.116Z,81.08
2023-03-16T00:17:51.591Z,78.36
2023-03-16T00:20:36.432Z,80.05
2023-03-16T00:23:27.169Z,81.72
2023-03-16T00:26:13.009Z,80.91
2023-03-16T00:28:57.896Z,79.40
2023-03-16T00:31:43.903Z,80.09
2023-03-16T00:34:30.354Z,74.97
2023-03-16T00:37:18.497Z,77.64
2023-03-16T00:40:04.496Z,74.86
2023-03-16T00:42:49.746Z,75.49
2023-03-16T00:45:35.054Z,75.06
2023-03-16T00:48:21.176Z,77.34
2023-03-16T00:51:09.194Z,81.78
2023-03-16T00:53:54.013Z,83.50
2023-03-16T00:56:38.839Z,77.76
2023-03-16T00:59:26.103Z,76.49
2023-03-16T01:02:12.341Z,81.87
2023-03-16T01:04:57.600Z,81.42
2023-03-16T01:07:42.932Z,80.37
2023-03-16T01:10:28.407Z,79.95
2023-03-16T01:13:13.713Z,79.04
2023-03-16T01:15:59.891Z,77.08
2023-03-16T01:18:44.911Z,81.36
2023-03-16T01:21:30.333Z,76.53
2023-03-16T01:24:15.231Z,76.42
2023-03-16T01:27:00.629Z,78.60
2023-03-16T01:29:45.798Z,82.47
2023-03-16T01:32:31.107Z,81.35
2023-03-16T01:35:15.932Z,78.72
2023-03-16T01:38:00.899Z,79.44
2023-03-16T01:40:46.148Z,79.01
2023-03-16T01:43:33.273Z,79.73
2023-03-16T01:46:22.877Z,77.83
2023-03-16T01:49:26.633Z,80.18
2023-03-16T01:52:21.164Z,79.30
2023-03-16T01:55:08.843Z,84.08
2023-03-16T01:57:56.952Z,81.01
2023-03-16T02:00:42.167Z,79.45
2023-03-16T02:03:28.042Z,77.07
2023-03-16T02:06:19.006Z,77.35
2023-03-16T02:09:05.652Z,78.30
2023-03-16T02:11:51.911Z,82.38
2023-03-16T02:14:36.844Z,83.09
2023-03-16T02:17:25.216Z,80.50
2023-03-16T02:20:26.333Z,81.43
2023-03-16T02:23:18.415Z,80.87
2023-03-16T02:26:27.977Z,81.18
2023-03-16T02:29:41.678Z,79.92
2023-03-16T02:32:28.944Z,77.29
2023-03-16T02:35:14.356Z,77.62
2023-03-16T02:37:59.976Z,75.10
2023-03-16T02:40:52.885Z,77.21
2023-03-16T02:43:42.565Z,81.90
2023-03-16T02:46:28.878Z,77.53
2023-03-16T02:49:21.804Z,79.75
2023-03-16T02:52:08.149Z,81.42
2023-03-16T02:54:53.095Z,75.84
2023-03-16T02:57:38.226Z,77.66
2023-03-16T03:00:23.155Z,79.25
2023-03-16T03:03:09.303Z,79.53
2023-03-16T03:05:54.323Z,78.48
2023-03-16T03:08:39.114Z,79.36
2023-03-16T03:11:25.219Z,79.13
2023-03-16T03:14:10.411Z,79.28
2023-03-16T03:16:56.310Z,78.64
2023-03-16T03:19:41.423Z,80.29
2023-03-16T03:22:27.904Z,79.82
2023-03-16T03:25:15.029Z,83.18
2023-03-16T03:28:01.982Z,83.32
2023-03-16T03:30:47.034Z,82.45
2023-03-16T03:33:33.578Z,80.96
2023-03-16T03:36:18.497Z,78.41
2023-03-16T03:39:05.034Z,78.07
2023-03-16T03:41:54.400Z,77.69
2023-03-16T03:44:39.414Z,76.61
2023-03-16T03:47:24.563Z,77.42
2023-03-16T03:50:11.269Z,77.55
2023-03-16T03:52:56.191Z,76.79
2023-03-16T03:55:41.218Z,75.86
2023-03-16T03:58:26.665Z,76.79
2023-03-16T04:01:11.490Z,77.13
2023-03-16T04:03:56.589Z,73.56
2023-03-16T04:06:41.641Z,78.49
2023-03-16T04:09:27.029Z,76.06
2023-03-16T04:12:12.300Z,78.98
2023-03-16T04:14:57.689Z,76.21
2023-03-16T04:17:42.902Z,79.02
2023-03-16T04:20:29.717Z,79.94
2023-03-16T04:23:16.549Z,76.84
2023-03-16T04:26:01.857Z,82.08
2023-03-16T04:28:47.782Z,82.03
2023-03-16T04:31:33.431Z,81.60
2023-03-16T04:34:18.227Z,82.77
2023-03-16T04:37:03.093Z,83.23
2023-03-16T04:39:48.274Z,78.66
2023-03-16T04:42:33.181Z,81.04
2023-03-16T04:45:18.593Z,78.98
2023-03-16T04:48:03.952Z,78.16
2023-03-16T04:50:49.268Z,76.75
2023-03-16T04:53:34.076Z,73.42
2023-03-16T04:56:19.966Z,78.93
2023-03-16T04:59:05.044Z,79.44
2023-03-16T05:01:50.291Z,80.24
2023-03-16T05:04:35.409Z,78.85
2023-03-16T05:07:21.228Z,78.36
2023-03-16T05:10:07.235Z,79.88
2023-03-16T05:12:52.428Z,78.78
2023-03-16T05:15:37.366Z,76.00
2023-03-16T05:18:23.006Z,74.62
2023-03-16T05:21:08.294Z,78.16
2023-03-16T05:23:54.501Z,74.06
2023-03-16T05:26:39.629Z,75.73
2023-03-16T05:29:26.006Z,79.52
2023-03-16T05:32:11.539Z,76.70
2023-03-16T05:34:56.765Z,73.17
2023-03-16T05:37:42.901Z,74.61
2023-03-16T05:40:28.854Z,75.71
2023-03-16T05:43:13.845Z,77.02
2023-03-16T05:45:58.765Z,78.52
2023-03-16T05:48:43.652Z,78.70
2023-03-16T05:51:28.683Z,79.27
2023-03-16T05:54:13.848Z,77.02
2023-03-16T05:56:59.112Z,77.71
2023-03-16T05:59:44.290Z,75.25
2023-03-16T06:02:29.616Z,77.48
2023-03-16T06:05:15.736Z,79.01
2023-03-16T06:08:01.563Z,74.67
2023-03-16T06:10:48.110Z,76.76
2023-03-16T06:13:35.331Z,77.30
2023-03-16T06:16:21.094Z,77.20
2023-03-16T06:19:06.347Z,79.47
2023-03-16T06:21:51.034Z,77.81
2023-03-16T06:24:35.933Z,79.32
2023-03-16T06:27:21.329Z,76.73
2023-03-16T06:30:08.625Z,79.07
2023-03-16T06:32:53.704Z,74.22
2023-03-16T06:35:38.804Z,79.09
2023-03-16T06:38:26.133Z,76.21
2023-03-16T06:41:11.614Z,77.90
2023-03-16T06:43:57.219Z,76.89
2023-03-16T06:46:42.547Z,71.61
2023-03-16T06:49:28.630Z,73.09
2023-03-16T06:52:14.707Z,71.67
2023-03-16T06:54:59.593Z,74.06
2023-03-16T06:57:44.793Z,68.74
2023-03-16T07:00:30.634Z,68.33
2023-03-16T07:03:16.225Z,64.82
2023-03-16T07:06:01.537Z,65.07
2023-03-16T07:08:46.368Z,67.08
2023-03-16T07:11:32.513Z,64.51
2023-03-16T07:14:19.552Z,64.58
2023-03-16T07:17:04.731Z,65.01
2023-03-16T07:19:49.656Z,64.17
2023-03-16T07:22:35.424Z,63.91
2023-03-16T07:25:20.461Z,63.55
2023-03-16T07:28:06.031Z,62.33
2023-03-16T07:31:03.076Z,62.88
2023-03-16T07:33:49.541Z,62.97
2023-03-16T07:36:34.282Z,62.26
2023-03-16T07:39:19.661Z,62.26
2023-03-16T07:42:04.761Z,60.58
2023-03-16T07:44:51.817Z,61.61
2023-03-16T07:47:37.157Z,60.33
2023-03-16T07:50:24.641Z,61.84
2023-03-16T07:53:10.138Z,60.55
2023-03-16T07:55:55.744Z,61.80
2023-03-16T07:58:41.765Z,60.78
2023-03-16T08:01:27.165Z,59.20
2023-03-16T08:04:12.853Z,59.01
2023-03-16T08:07:00.158Z,57.95
2023-03-16T08:09:45.170Z,58.76
2023-03-16T08:12:30.163Z,56.70
2023-03-16T08:15:15.603Z,58.24
2023-03-16T08:18:02.464Z,57.12
2023-03-16T08:20:47.514Z,56.69
2023-03-16T08:23:33.519Z,55.06
2023-03-16T08:26:23.087Z,54.77
2023-03-16T08:29:07.818Z,54.12
2023-03-16T08:31:56.128Z,53.80
2023-03-16T08:34:42.115Z,54.50
2023-03-16T08:37:27.483Z,54.36
2023-03-16T08:40:17.018Z,53.20
2023-03-16T08:43:02.431Z,53.91
2023-03-16T08:45:48.310Z,52.06
2023-03-16T08:48:33.718Z,52.62
2023-03-16T08:51:19.341Z,51.90
2023-03-16T08:54:05.056Z,51.15
2023-03-16T08:56:52.640Z,51.25
2023-03-16T08:59:38.532Z,49.55
2023-03-16T09:02:25.244Z,48.39
2023-03-16T09:05:12.374Z,47.15
2023-03-16T09:07:57.604Z,49.98
2023-03-16T09:10:42.457Z,47.90
2023-03-16T09:13:29.980Z,44.73
2023-03-16T09:16:15.981Z,43.77
2023-03-16T09:19:01.371Z,43.80
2023-03-16T09:21:47.440Z,43.02
2023-03-16T09:24:32.845Z,41.23
2023-03-16T09:27:18.635Z,41.83
2023-03-16T09:30:05.398Z,39.25
2023-03-16T09:32:50.744Z,40.72
2023-03-16T09:35:37.407Z,38.85
2023-03-16T09:38:22.456Z,42.00
2023-03-16T09:41:10.915Z,39.09
2023-03-16T09:44:29.559Z,41.21
2023-03-16T09:47:16.550Z,40.49
2023-03-16T09:50:07.323Z,39.15
2023-03-16T09:53:14.258Z,40.52
2023-03-16T09:56:27.233Z,40.15
2023-03-16T09:59:15.145Z,41.13
2023-03-16T10:02:42.011Z,38.96
2023-03-16T10:05:28.568Z,37.57
2023-03-16T10:08:16.665Z,39.60
2023-03-16T10:11:04.880Z,37.29
2023-03-16T10:14:17.461Z,39.36
2023-03-16T10:17:40.509Z,40.58
2023-03-16T10:20:28.449Z,37.06
2023-03-16T10:23:20.443Z,37.71
2023-03-16T10:26:13.412Z,36.84
2023-03-16T10:29:01.841Z,36.96
2023-03-16T10:31:47.312Z,35.72
2023-03-16T10:34:32.558Z,34.75
2023-03-16T10:37:17.401Z,34.42
2023-03-16T10:40:09.345Z,31.10
2023-03-16T10:42:54.974Z,34.61
2023-03-16T10:45:47.099Z,31.35
2023-03-16T10:48:34.708Z,32.54
2023-03-16T10:51:25.604Z,31.39
2023-03-16T10:54:19.715Z,31.75
2023-03-16T10:57:15.777Z,34.79
2023-03-16T11:00:21.539Z,29.05
2023-03-16T11:03:22.797Z,30.33
2023-03-16T11:06:21.138Z,30.83
2023-03-16T11:09:22.712Z,30.60
2023-03-16T11:12:35.244Z,31.00
2023-03-16T11:15:26.075Z,31.40
2023-03-16T11:18:25.306Z,35.32
2023-03-16T11:21:51.191Z,31.43
2023-03-16T11:24:52.473Z,33.01
2023-03-16T11:27:54.104Z,33.98
2023-03-16T11:31:01.273Z,36.82
2023-03-16T11:33:49.583Z,36.74
2023-03-16T11:36:44.074Z,39.04
2023-03-16T11:39:44.904Z,34.41
2023-03-16T11:42:42.891Z,37.11
2023-03-16T11:45:37.011Z,34.07
2023-03-16T11:48:48.685Z,36.47
2023-03-16T11:52:05.160Z,33.62
2023-03-16T11:55:03.419Z,32.87
2023-03-16T11:58:24.412Z,32.94
2023-03-16T12:01:25.759Z,32.41
2023-03-16T12:04:22.170Z,33.76
2023-03-16T12:07:25.775Z,33.35
2023-03-16T12:10:29.289Z,31.66
2023-03-16T12:13:35.781Z,30.98
2023-03-16T12:16:48.351Z,31.67
2023-03-16T12:19:42.166Z,31.20
2023-03-16T12:22:37.259Z,30.26
2023-03-16T12:25:27.788Z,29.26
2023-03-16T12:28:33.283Z,29.81
2023-03-16T12:31:43.019Z,30.68
2023-03-16T12:34:56.475Z,29.03
2023-03-16T12:37:48.197Z,29.68
2023-03-16T12:40:55.082Z,28.50
2023-03-16T12:43:52.010Z,29.18
2023-03-16T12:47:04.859Z,28.67
2023-03-16T12:49:51.948Z,26.40
2023-03-16T12:52:52.318Z,27.85
2023-03-16T12:55:38.192Z,29.35
2023-03-16T12:58:26.262Z,28.71
2023-03-16T13:01:13.303Z,27.03
2023-03-16T13:04:03.498Z,27.93
2023-03-16T13:07:03.071Z,26.96
2023-03-16T13:09:54.410Z,26.95
2023-03-16T13:12:41.603Z,27.39
2023-03-16T13:15:28.269Z,27.90
2023-03-16T13:18:33.822Z,26.13
2023-03-16T13:21:41.181Z,27.83
2023-03-16T13:24:35.443Z,27.23
2023-03-16T13:27:25.425Z,29.36
2023-03-16T13:30:32.302Z,29.03
2023-03-16T13:33:25.507Z,28.32
2023-03-16T13:36:12.947Z,27.52
2023-03-16T13:39:06.800Z,29.29
2023-03-16T13:42:10.662Z,28.54
2023-03-16T13:44:58.079Z,30.16
2023-03-16T13:47:45.208Z,28.64
2023-03-16T13:50:34.609Z,27.04
2023-03-16T13:53:28.439Z,28.36
2023-03-16T13:56:16.903Z,28.06
2023-03-16T13:59:04.532Z,28.69
2023-03-16T14:01:58.565Z,31.05
2023-03-16T14:04:43.838Z,30.91
2023-03-16T14:07:29.328Z,29.22
2023-03-16T14:10:20.382Z,31.90
2023-03-16T14:13:22.224Z,30.13
2023-03-16T14:16:12.524Z,29.75
2023-03-16T14:19:02.291Z,32.22
2023-03-16T14:21:47.443Z,32.49
2023-03-16T14:24:37.258Z,31.84
2023-03-16T14:27:41.670Z,32.59
2023-03-16T14:30:30.223Z,32.92
2023-03-16T14:33:28.704Z,33.34
2023-03-16T14:36:16.481Z,34.68
2023-03-16T14:39:14.205Z,34.89
2023-03-16T14:42:03.068Z,34.59
2023-03-16T14:44:49.968Z,35.37
2023-03-16T14:47:42.252Z,34.22
2023-03-16T14:50:27.944Z,34.56
2023-03-16T14:53:13.107Z,35.26
2023-03-16T14:55:59.318Z,34.10
2023-03-16T14:58:46.161Z,35.70
2023-03-16T15:01:31.340Z,35.21
2023-03-16T15:04:23.648Z,36.36
2023-03-16T15:07:29.455Z,37.52
2023-03-16T15:10:26.744Z,37.99
2023-03-16T15:13:35.230Z,36.33
2023-03-16T15:16:23.072Z,37.03
2023-03-16T15:19:09.125Z,37.56
2023-03-16T15:21:57.376Z,37.98
2023-03-16T15:24:43.928Z,38.21
2023-03-16T15:27:35.016Z,39.27
2023-03-16T15:30:26.313Z,38.70
2023-03-16T15:33:12.867Z,39.32
2023-03-16T15:35:59.997Z,38.97
2023-03-16T15:38:54.067Z,40.30
2023-03-16T15:41:47.589Z,40.56
2023-03-16T15:44:33.069Z,40.33
2023-03-16T15:47:19.430Z,40.81
2023-03-16T15:50:06.057Z,40.95
2023-03-16T15:52:59.468Z,40.85
2023-03-16T15:55:47.353Z,40.99
2023-03-16T15:58:34.860Z,42.01
2023-03-16T16:01:29.929Z,41.66
2023-03-16T16:04:19.445Z,41.95
2023-03-16T16:07:11.134Z,41.38
2023-03-16T16:09:56.489Z,42.03
2023-03-16T16:12:42.132Z,41.75
2023-03-16T16:15:35.981Z,41.98
2023-03-16T16:18:30.620Z,43.03
2023-03-16T16:21:23.225Z,44.39
2023-03-16T16:24:09.678Z,41.66
2023-03-16T16:26:56.087Z,41.81
2023-03-16T16:29:40.978Z,42.62
2023-03-16T16:32:26.512Z,42.16
2023-03-16T16:35:18.096Z,43.90
2023-03-16T16:38:04.670Z,43.01
2023-03-16T16:40:50.897Z,44.53
2023-03-16T16:43:42.424Z,44.24
2023-03-16T16:46:30.118Z,44.83
2023-03-16T16:49:26.989Z,44.00
2023-03-16T16:52:17.741Z,44.63
2023-03-16T16:55:03.154Z,45.21
2023-03-16T16:57:53.665Z,45.32
2023-03-16T17:00:39.767Z,45.86
2023-03-16T17:03:30.080Z,46.73
2023-03-16T17:06:17.653Z,47.31
2023-03-16T17:09:03.156Z,45.40
2023-03-16T17:11:50.344Z,46.74
2023-03-16T17:14:35.766Z,46.70
2023-03-16T17:17:21.422Z,47.38
2023-03-16T17:20:17.572Z,47.92
2023-03-16T17:23:19.451Z,47.37
2023-03-16T17:26:30.725Z,48.34
2023-03-16T17:29:22.916Z,48.21
2023-03-16T17:32:18.422Z,47.51
2023-03-16T17:35:13.030Z,47.49
2023-03-16T17:37:59.543Z,47.25
2023-03-16T17:40:45.328Z,48.10
2023-03-16T17:43:31.727Z,48.10
2023-03-16T17:46:24.262Z,47.41
2023-03-16T17:49:24.406Z,47.59
2023-03-16T17:52:18.628Z,47.38
2023-03-16T17:55:05.225Z,47.36
2023-03-16T17:57:56.688Z,47.72
2023-03-16T18:00:48.044Z,47.60
2023-03-16T18:03:33.229Z,47.90
2023-03-16T18:06:25.554Z,48.07
2023-03-16T18:09:11.163Z,48.93
2023-03-16T18:11:56.428Z,47.84
2023-03-16T18:14:44.265Z,48.60
2023-03-16T18:17:32.532Z,48.52
2023-03-16T18:20:27.747Z,48.38
2023-03-16T18:23:29.151Z,48.46
2023-03-16T18:26:16.786Z,49.54
2023-03-16T18:29:01.919Z,48.55
2023-03-16T18:31:47.867Z,49.63
2023-03-16T18:34:35.490Z,49.20
2023-03-16T18:37:23.438Z,49.63
2023-03-16T18:40:18.950Z,49.45
2023-03-16T18:43:08.538Z,49.26
2023-03-16T18:45:54.934Z,49.97
2023-03-16T18:48:48.853Z,49.74
2023-03-16T18:51:35.688Z,49.63
2023-03-16T18:54:32.144Z,49.05
2023-03-16T18:57:22.248Z,49.70
2023-03-16T19:00:08.109Z,50.25
2023-03-16T19:03:02.048Z,49.75
2023-03-16T19:05:47.309Z,50.53
2023-03-16T19:08:34.215Z,49.85
2023-03-16T19:11:19.852Z,50.42
2023-03-16T19:14:15.102Z,50.30
2023-03-16T19:17:05.316Z,49.93
2023-03-16T19:19:52.191Z,49.67
2023-03-16T19:22:40.497Z,50.03
2023-03-16T19:25:38.276Z,50.57
2023-03-16T19:28:40.560Z,50.53
2023-03-16T19:31:28.051Z,51.13
2023-03-16T19:34:18.456Z,50.52
2023-03-16T19:37:03.306Z,50.44
2023-03-16T19:39:48.576Z,50.58
2023-03-16T19:42:34.263Z,51.50
2023-03-16T19:45:29.240Z,51.71
2023-03-16T19:48:23.050Z,51.30
2023-03-16T19:51:35.738Z,51.54
2023-03-16T19:54:26.691Z,51.86
2023-03-16T19:57:17.177Z,50.94
2023-03-16T20:00:02.440Z,51.64
2023-03-16T20:02:48.383Z,52.54
2023-03-16T20:05:33.657Z,51.59
2023-03-16T20:08:28.466Z,52.20
2023-03-16T20:11:27.656Z,51.75
2023-03-16T20:14:23.679Z,51.73
2023-03-16T20:17:22.608Z,52.65
2023-03-16T20:20:18.349Z,52.75
2023-03-16T20:23:26.922Z,52.28
2023-03-16T20:26:22.894Z,52.27
2023-03-16T20:29:28.482Z,52.94
2023-03-16T20:32:22.954Z,52.52
2023-03-16T20:35:16.974Z,53.03
2023-03-16T20:38:01.897Z,52.28
2023-03-16T20:40:51.060Z,52.90
2023-03-16T20:43:36.183Z,53.07
2023-03-16T20:46:32.593Z,52.72
2023-03-16T20:49:29.147Z,52.77
2023-03-16T20:52:22.728Z,52.44
2023-03-16T20:55:12.904Z,52.36
2023-03-16T20:57:58.924Z,52.70
2023-03-16T21:00:45.563Z,52.97
2023-03-16T21:03:33.264Z,52.71
2023-03-16T21:06:24.343Z,53.32
2023-03-16T21:09:12.261Z,53.37
2023-03-16T21:11:57.384Z,53.53
2023-03-16T21:14:42.308Z,52.86
2023-03-16T21:17:34.412Z,53.50
2023-03-16T21:20:21.440Z,54.07
2023-03-16T21:23:13.731Z,54.00
2023-03-16T21:26:03.580Z,53.45
2023-03-16T21:29:01.350Z,53.54
2023-03-16T21:31:46.244Z,53.60
2023-03-16T21:34:36.150Z,53.97
2023-03-16T21:37:26.726Z,53.47
2023-03-16T21:40:20.794Z,53.35
2023-03-16T21:43:06.220Z,53.35
2023-03-16T21:45:52.353Z,53.38
2023-03-16T21:48:39.993Z,53.54
2023-03-16T21:51:30.107Z,53.92
2023-03-16T21:54:16.763Z,54.11
2023-03-16T21:57:02.726Z,54.10
2023-03-16T21:59:50.149Z,53.95
2023-03-16T22:02:36.912Z,54.08
2023-03-16T22:05:34.986Z,53.52
2023-03-16T22:08:30.541Z,54.37
2023-03-16T22:11:25.263Z,54.89
2023-03-16T22:14:11.780Z,54.29
2023-03-16T22:16:57.258Z,54.27
2023-03-16T22:19:42.358Z,53.79
2023-03-16T22:22:31.890Z,54.73
2023-03-16T22:25:21.856Z,54.76
2023-03-16T22:28:11.446Z,54.45
2023-03-16T22:30:58.167Z,54.86
2023-03-16T22:33:44.168Z,54.76
2023-03-16T22:36:32.766Z,54.35
2023-03-16T22:39:18.123Z,54.85
2023-03-16T22:42:22.233Z,55.45
2023-03-16T22:45:28.041Z,55.22
2023-03-16T22:48:22.332Z,55.27
2023-03-16T22:51:31.378Z,55.03
2023-03-16T22:54:21.175Z,55.52
2023-03-16T22:57:07.117Z,55.55
2023-03-16T22:59:52.631Z,55.16
2023-03-16T23:02:37.488Z,55.41
2023-03-16T23:05:25.576Z,56.29
2023-03-16T23:08:21.051Z,55.55
2023-03-16T23:11:13.584Z,55.48
2023-03-16T23:14:00.345Z,56.66
2023-03-16T23:16:47.150Z,56.45
2023-03-16T23:19:34.269Z,56.17
2023-03-16T23:22:19.079Z,57.03
2023-03-16T23:25:04.265Z,56.54
2023-03-16T23:27:51.405Z,56.96
2023-03-16T23:30:36.367Z,56.96
2023-03-16T23:33:22.032Z,57.00
2023-03-16T23:36:14.645Z,56.85
2023-03-16T23:39:00.591Z,57.05
2023-03-16T23:41:49.496Z,56.49
2023-03-16T23:44:34.552Z,57.36
2023-03-16T23:47:21.440Z,57.81
2023-03-16T23:50:07.944Z,57.59
2023-03-16T23:52:53.004Z,58.13
2023-03-16T23:55:38.291Z,58.40
2023-03-16T23:58:23.888Z,58.64
